sensor_id;sensor_type;location;lat;lon;timestamp;pressure;altitude;pressure_sealevel;temperature;humidity
11856;BME280;5987;53.140;8.904;2022-07-22T00:01:34;101779.47;;;15.61;99.69
11856;BME280;5987;53.140;8.904;2022-07-22T00:04:38;101796.91;;;15.67;99.61
11856;BME280;5987;53.140;8.904;2022-07-22T00:07:42;101788.44;;;15.58;99.29
11856;BME280;5987;53.140;8.904;2022-07-22T00:10:47;101788.03;;;15.68;99.41
11856;BME280;5987;53.140;8.904;2022-07-22T00:13:51;101782.84;;;15.44;98.93
11856;BME280;5987;53.140;8.904;2022-07-22T00:16:54;101780.34;;;15.41;98.88
11856;BME280;5987;53.140;8.904;2022-07-22T00:19:58;101780.59;;;15.35;98.66
11856;BME280;5987;53.140;8.904;2022-07-22T00:23:02;101783.72;;;15.44;98.45
11856;BME280;5987;53.140;8.904;2022-07-22T00:26:07;101788.53;;;15.35;98.53
11856;BME280;5987;53.140;8.904;2022-07-22T00:29:11;101790.91;;;15.41;98.30
11856;BME280;5987;53.140;8.904;2022-07-22T00:32:15;101788.59;;;15.33;98.14
11856;BME280;5987;53.140;8.904;2022-07-22T00:35:18;101801.09;;;15.30;98.13
11856;BME280;5987;53.140;8.904;2022-07-22T00:38:22;101797.66;;;15.27;98.23
11856;BME280;5987;53.140;8.904;2022-07-22T00:41:27;101802.19;;;15.24;98.30
11856;BME280;5987;53.140;8.904;2022-07-22T00:44:31;101794.59;;;15.16;98.22
11856;BME280;5987;53.140;8.904;2022-07-22T00:47:39;101807.44;;;15.03;97.92
11856;BME280;5987;53.140;8.904;2022-07-22T00:50:43;101810.53;;;14.92;97.96
11856;BME280;5987;53.140;8.904;2022-07-22T00:53:48;101817.41;;;14.97;97.80
11856;BME280;5987;53.140;8.904;2022-07-22T00:56:54;101809.47;;;14.97;97.45
11856;BME280;5987;53.140;8.904;2022-07-22T00:59:59;101810.25;;;14.99;97.18
11856;BME280;5987;53.140;8.904;2022-07-22T01:03:03;101818.25;;;14.97;96.93
11856;BME280;5987;53.140;8.904;2022-07-22T01:06:07;101811.09;;;15.01;96.98
11856;BME280;5987;53.140;8.904;2022-07-22T01:09:12;101825.03;;;15.04;96.90
11856;BME280;5987;53.140;8.904;2022-07-22T01:12:18;101816.97;;;15.07;96.56
11856;BME280;5987;53.140;8.904;2022-07-22T01:15:21;101824.66;;;15.14;96.39
11856;BME280;5987;53.140;8.904;2022-07-22T01:18:25;101823.06;;;15.09;96.42
11856;BME280;5987;53.140;8.904;2022-07-22T01:21:31;101832.06;;;15.05;96.10
11856;BME280;5987;53.140;8.904;2022-07-22T01:24:35;101827.25;;;15.15;96.55
11856;BME280;5987;53.140;8.904;2022-07-22T01:27:39;101828.44;;;15.08;96.26
11856;BME280;5987;53.140;8.904;2022-07-22T01:30:43;101824.19;;;15.04;96.27
11856;BME280;5987;53.140;8.904;2022-07-22T01:33:46;101825.16;;;15.01;96.09
11856;BME280;5987;53.140;8.904;2022-07-22T01:36:52;101827.59;;;15.06;96.50
11856;BME280;5987;53.140;8.904;2022-07-22T01:39:56;101833.84;;;15.05;96.23
11856;BME280;5987;53.140;8.904;2022-07-22T01:42:59;101831.34;;;15.00;96.38
11856;BME280;5987;53.140;8.904;2022-07-22T01:46:04;101831.06;;;15.08;96.46
11856;BME280;5987;53.140;8.904;2022-07-22T01:49:08;101833.88;;;15.03;96.24
11856;BME280;5987;53.140;8.904;2022-07-22T01:52:13;101838.44;;;15.00;96.12
11856;BME280;5987;53.140;8.904;2022-07-22T01:55:17;101834.69;;;15.05;96.50
11856;BME280;5987;53.140;8.904;2022-07-22T01:58:21;101839.41;;;14.97;96.10
11856;BME280;5987;53.140;8.904;2022-07-22T02:01:25;101845.69;;;14.95;95.91
11856;BME280;5987;53.140;8.904;2022-07-22T02:04:28;101842.00;;;14.99;96.16
11856;BME280;5987;53.140;8.904;2022-07-22T02:07:34;101849.03;;;15.00;96.03
11856;BME280;5987;53.140;8.904;2022-07-22T02:10:38;101838.78;;;14.90;95.68
11856;BME280;5987;53.140;8.904;2022-07-22T02:13:42;101843.56;;;14.81;95.79
11856;BME280;5987;53.140;8.904;2022-07-22T02:16:45;101846.28;;;14.79;95.98
11856;BME280;5987;53.140;8.904;2022-07-22T02:19:49;101840.88;;;14.82;96.18
11856;BME280;5987;53.140;8.904;2022-07-22T02:22:54;101849.38;;;14.67;96.00
11856;BME280;5987;53.140;8.904;2022-07-22T02:25:58;101845.75;;;14.69;95.81
11856;BME280;5987;53.140;8.904;2022-07-22T02:29:03;101841.44;;;14.67;95.95
11856;BME280;5987;53.140;8.904;2022-07-22T02:32:07;101850.31;;;14.66;95.85
11856;BME280;5987;53.140;8.904;2022-07-22T02:35:10;101839.88;;;14.61;95.64
11856;BME280;5987;53.140;8.904;2022-07-22T02:38:16;101847.63;;;14.67;95.73
11856;BME280;5987;53.140;8.904;2022-07-22T02:41:19;101851.44;;;14.58;95.53
11856;BME280;5987;53.140;8.904;2022-07-22T02:44:23;101843.56;;;14.57;95.58
11856;BME280;5987;53.140;8.904;2022-07-22T02:47:27;101855.72;;;14.63;95.88
11856;BME280;5987;53.140;8.904;2022-07-22T02:50:38;101857.63;;;14.57;95.38
11856;BME280;5987;53.140;8.904;2022-07-22T02:58:43;101854.16;;;14.55;95.28
11856;BME280;5987;53.140;8.904;2022-07-22T03:01:48;101857.75;;;14.54;95.03
11856;BME280;5987;53.140;8.904;2022-07-22T03:04:52;101862.16;;;14.54;94.89
11856;BME280;5987;53.140;8.904;2022-07-22T03:07:56;101864.13;;;14.49;94.92
11856;BME280;5987;53.140;8.904;2022-07-22T03:11:00;101863.25;;;14.48;95.08
11856;BME280;5987;53.140;8.904;2022-07-22T03:14:05;101860.03;;;14.40;94.95
11856;BME280;5987;53.140;8.904;2022-07-22T03:17:09;101860.78;;;14.44;95.11
11856;BME280;5987;53.140;8.904;2022-07-22T03:20:12;101869.50;;;14.46;94.79
11856;BME280;5987;53.140;8.904;2022-07-22T03:23:16;101872.22;;;14.44;94.59
11856;BME280;5987;53.140;8.904;2022-07-22T03:26:21;101876.31;;;14.53;94.81
11856;BME280;5987;53.140;8.904;2022-07-22T03:29:27;101871.06;;;14.51;94.47
11856;BME280;5987;53.140;8.904;2022-07-22T03:32:30;101874.72;;;14.49;94.25
11856;BME280;5987;53.140;8.904;2022-07-22T03:35:34;101877.41;;;14.47;94.40
11856;BME280;5987;53.140;8.904;2022-07-22T03:38:38;101872.13;;;14.47;94.15
11856;BME280;5987;53.140;8.904;2022-07-22T03:41:41;101876.53;;;14.47;94.02
11856;BME280;5987;53.140;8.904;2022-07-22T03:44:46;101881.50;;;14.56;94.06
11856;BME280;5987;53.140;8.904;2022-07-22T03:47:50;101884.97;;;14.56;93.94
11856;BME280;5987;53.140;8.904;2022-07-22T03:50:56;101886.72;;;14.57;93.97
11856;BME280;5987;53.140;8.904;2022-07-22T03:54:00;101877.34;;;14.49;93.72
11856;BME280;5987;53.140;8.904;2022-07-22T03:57:04;101882.34;;;14.56;93.71
11856;BME280;5987;53.140;8.904;2022-07-22T04:00:10;101887.63;;;14.56;93.50
11856;BME280;5987;53.140;8.904;2022-07-22T04:03:14;101886.59;;;14.61;93.38
11856;BME280;5987;53.140;8.904;2022-07-22T04:06:17;101887.50;;;14.59;93.34
11856;BME280;5987;53.140;8.904;2022-07-22T04:09:21;101890.09;;;14.61;93.02
11856;BME280;5987;53.140;8.904;2022-07-22T04:12:25;101883.94;;;14.61;92.95
11856;BME280;5987;53.140;8.904;2022-07-22T04:15:30;101892.72;;;14.63;93.10
11856;BME280;5987;53.140;8.904;2022-07-22T04:18:34;101889.25;;;14.61;92.68
11856;BME280;5987;53.140;8.904;2022-07-22T04:21:38;101895.38;;;14.63;92.76
11856;BME280;5987;53.140;8.904;2022-07-22T04:24:42;101895.66;;;14.53;92.52
11856;BME280;5987;53.140;8.904;2022-07-22T04:27:47;101895.38;;;14.61;93.12
11856;BME280;5987;53.140;8.904;2022-07-22T04:30:52;101894.31;;;14.67;92.74
11856;BME280;5987;53.140;8.904;2022-07-22T04:33:57;101893.34;;;14.69;93.08
11856;BME280;5987;53.140;8.904;2022-07-22T04:37:01;101901.00;;;14.77;92.87
11856;BME280;5987;53.140;8.904;2022-07-22T04:40:06;101898.50;;;14.72;92.42
11856;BME280;5987;53.140;8.904;2022-07-22T04:43:11;101903.13;;;14.67;92.16
11856;BME280;5987;53.140;8.904;2022-07-22T04:46:17;101906.69;;;14.66;92.29
11856;BME280;5987;53.140;8.904;2022-07-22T04:49:21;101898.31;;;14.53;91.85
11856;BME280;5987;53.140;8.904;2022-07-22T04:52:24;101901.97;;;14.49;91.48
11856;BME280;5987;53.140;8.904;2022-07-22T04:55:29;101905.59;;;14.47;91.02
11856;BME280;5987;53.140;8.904;2022-07-22T04:58:32;101903.72;;;14.50;90.83
11856;BME280;5987;53.140;8.904;2022-07-22T05:01:38;101900.19;;;14.50;90.40
11856;BME280;5987;53.140;8.904;2022-07-22T05:04:41;101905.34;;;14.54;90.52
11856;BME280;5987;53.140;8.904;2022-07-22T05:07:45;101906.06;;;14.58;90.67
11856;BME280;5987;53.140;8.904;2022-07-22T05:10:49;101905.22;;;14.57;90.73
11856;BME280;5987;53.140;8.904;2022-07-22T05:13:53;101908.66;;;14.59;90.82
11856;BME280;5987;53.140;8.904;2022-07-22T05:16:58;101911.19;;;14.64;91.22
11856;BME280;5987;53.140;8.904;2022-07-22T05:20:02;101917.41;;;14.62;90.94
11856;BME280;5987;53.140;8.904;2022-07-22T05:23:06;101906.00;;;14.59;91.18
11856;BME280;5987;53.140;8.904;2022-07-22T05:26:10;101909.44;;;14.63;91.00
11856;BME280;5987;53.140;8.904;2022-07-22T05:29:14;101915.47;;;14.67;91.54
11856;BME280;5987;53.140;8.904;2022-07-22T05:32:19;101912.69;;;14.71;91.17
11856;BME280;5987;53.140;8.904;2022-07-22T05:35:23;101914.16;;;14.79;90.99
11856;BME280;5987;53.140;8.904;2022-07-22T05:38:26;101912.81;;;14.67;90.57
11856;BME280;5987;53.140;8.904;2022-07-22T05:41:30;101914.22;;;14.77;90.09
11856;BME280;5987;53.140;8.904;2022-07-22T05:44:34;101919.84;;;14.91;89.85
11856;BME280;5987;53.140;8.904;2022-07-22T05:47:39;101916.44;;;14.88;89.26
11856;BME280;5987;53.140;8.904;2022-07-22T05:50:42;101916.41;;;14.89;88.50
11856;BME280;5987;53.140;8.904;2022-07-22T05:53:46;101919.84;;;14.91;88.19
11856;BME280;5987;53.140;8.904;2022-07-22T05:56:50;101918.38;;;14.84;87.73
11856;BME280;5987;53.140;8.904;2022-07-22T05:59:53;101916.97;;;14.98;87.27
11856;BME280;5987;53.140;8.904;2022-07-22T06:02:58;101920.44;;;15.00;86.28
11856;BME280;5987;53.140;8.904;2022-07-22T06:06:02;101919.41;;;15.04;85.52
11856;BME280;5987;53.140;8.904;2022-07-22T06:09:07;101920.47;;;15.22;85.12
11856;BME280;5987;53.140;8.904;2022-07-22T06:12:11;101913.25;;;15.25;84.70
11856;BME280;5987;53.140;8.904;2022-07-22T06:15:15;101908.75;;;15.51;83.97
11856;BME280;5987;53.140;8.904;2022-07-22T06:18:20;101910.22;;;15.58;83.82
11856;BME280;5987;53.140;8.904;2022-07-22T06:21:24;101907.22;;;15.66;83.33
11856;BME280;5987;53.140;8.904;2022-07-22T06:24:28;101909.06;;;15.86;83.07
11856;BME280;5987;53.140;8.904;2022-07-22T06:27:31;101912.53;;;15.88;82.07
11856;BME280;5987;53.140;8.904;2022-07-22T06:30:35;101917.97;;;15.85;80.72
11856;BME280;5987;53.140;8.904;2022-07-22T06:33:40;101917.19;;;16.04;81.05
11856;BME280;5987;53.140;8.904;2022-07-22T06:36:44;101923.19;;;16.07;80.72
11856;BME280;5987;53.140;8.904;2022-07-22T06:39:49;101922.56;;;16.02;79.31
11856;BME280;5987;53.140;8.904;2022-07-22T06:42:52;101921.09;;;15.95;78.64
11856;BME280;5987;53.140;8.904;2022-07-22T06:45:56;101933.75;;;16.29;77.95
11856;BME280;5987;53.140;8.904;2022-07-22T06:49:01;101940.66;;;16.34;76.75
11856;BME280;5987;53.140;8.904;2022-07-22T06:52:05;101932.66;;;16.15;75.30
11856;BME280;5987;53.140;8.904;2022-07-22T06:55:10;101939.56;;;16.17;73.31
11856;BME280;5987;53.140;8.904;2022-07-22T06:58:14;101929.38;;;16.28;71.27
11856;BME280;5987;53.140;8.904;2022-07-22T07:01:18;101941.16;;;16.21;69.82
11856;BME280;5987;53.140;8.904;2022-07-22T07:04:24;101941.84;;;16.47;69.32
11856;BME280;5987;53.140;8.904;2022-07-22T07:07:28;101947.47;;;16.39;69.57
11856;BME280;5987;53.140;8.904;2022-07-22T07:10:31;101942.16;;;16.60;68.33
11856;BME280;5987;53.140;8.904;2022-07-22T07:13:35;101949.38;;;16.56;68.22
11856;BME280;5987;53.140;8.904;2022-07-22T07:16:39;101945.03;;;16.55;68.34
11856;BME280;5987;53.140;8.904;2022-07-22T07:19:44;101937.84;;;16.37;68.56
11856;BME280;5987;53.140;8.904;2022-07-22T07:22:48;101945.28;;;16.49;68.39
11856;BME280;5987;53.140;8.904;2022-07-22T07:25:51;101940.25;;;16.43;67.96
11856;BME280;5987;53.140;8.904;2022-07-22T07:28:55;101941.97;;;16.44;67.98
11856;BME280;5987;53.140;8.904;2022-07-22T07:31:59;101941.56;;;16.53;68.18
11856;BME280;5987;53.140;8.904;2022-07-22T07:35:06;101934.00;;;16.64;68.69
11856;BME280;5987;53.140;8.904;2022-07-22T07:38:10;101945.13;;;16.73;68.96
11856;BME280;5987;53.140;8.904;2022-07-22T07:41:14;101941.66;;;16.71;69.59
11856;BME280;5987;53.140;8.904;2022-07-22T07:44:18;101938.75;;;16.77;69.02
11856;BME280;5987;53.140;8.904;2022-07-22T07:47:22;101942.31;;;16.96;69.00
11856;BME280;5987;53.140;8.904;2022-07-22T07:50:27;101944.41;;;17.09;68.37
11856;BME280;5987;53.140;8.904;2022-07-22T07:53:31;101937.28;;;16.90;68.63
11856;BME280;5987;53.140;8.904;2022-07-22T07:56:37;101940.56;;;16.76;67.92
11856;BME280;5987;53.140;8.904;2022-07-22T07:59:41;101949.50;;;16.74;67.25
11856;BME280;5987;53.140;8.904;2022-07-22T08:02:44;101942.09;;;16.61;67.25
11856;BME280;5987;53.140;8.904;2022-07-22T08:05:50;101951.50;;;16.89;66.05
11856;BME280;5987;53.140;8.904;2022-07-22T08:08:54;101951.00;;;17.19;65.23
11856;BME280;5987;53.140;8.904;2022-07-22T08:11:59;101961.03;;;17.12;64.79
11856;BME280;5987;53.140;8.904;2022-07-22T08:15:04;101959.59;;;17.05;64.18
11856;BME280;5987;53.140;8.904;2022-07-22T08:18:10;101956.97;;;17.24;64.11
11856;BME280;5987;53.140;8.904;2022-07-22T08:21:15;101956.13;;;17.60;63.07
11856;BME280;5987;53.140;8.904;2022-07-22T08:24:18;101960.44;;;17.44;62.34
11856;BME280;5987;53.140;8.904;2022-07-22T08:27:22;101949.09;;;17.59;62.98
11856;BME280;5987;53.140;8.904;2022-07-22T08:30:26;101962.81;;;17.50;61.96
11856;BME280;5987;53.140;8.904;2022-07-22T08:33:31;101955.19;;;17.61;61.44
11856;BME280;5987;53.140;8.904;2022-07-22T08:36:36;101964.91;;;17.62;61.58
11856;BME280;5987;53.140;8.904;2022-07-22T08:39:40;101962.91;;;17.29;61.15
11856;BME280;5987;53.140;8.904;2022-07-22T08:42:47;101968.56;;;17.41;62.12
11856;BME280;5987;53.140;8.904;2022-07-22T08:45:51;101962.81;;;17.50;61.00
11856;BME280;5987;53.140;8.904;2022-07-22T08:48:55;101960.00;;;17.72;61.11
11856;BME280;5987;53.140;8.904;2022-07-22T08:52:03;101959.72;;;17.59;61.30
11856;BME280;5987;53.140;8.904;2022-07-22T08:55:09;101962.56;;;17.74;61.33
11856;BME280;5987;53.140;8.904;2022-07-22T08:58:14;101961.75;;;17.54;61.28
11856;BME280;5987;53.140;8.904;2022-07-22T09:01:18;101959.66;;;17.61;61.71
11856;BME280;5987;53.140;8.904;2022-07-22T09:04:22;101963.88;;;17.65;62.01
11856;BME280;5987;53.140;8.904;2022-07-22T09:07:30;101969.53;;;17.40;62.02
11856;BME280;5987;53.140;8.904;2022-07-22T09:10:36;101971.22;;;17.03;62.94
11856;BME280;5987;53.140;8.904;2022-07-22T09:13:42;101975.09;;;17.34;63.57
11856;BME280;5987;53.140;8.904;2022-07-22T09:16:48;101969.22;;;17.46;62.88
11856;BME280;5987;53.140;8.904;2022-07-22T09:19:52;101961.28;;;17.63;62.01
11856;BME280;5987;53.140;8.904;2022-07-22T09:22:57;101967.28;;;17.30;62.25
11856;BME280;5987;53.140;8.904;2022-07-22T09:26:01;101969.22;;;17.46;62.27
11856;BME280;5987;53.140;8.904;2022-07-22T09:29:06;101983.59;;;17.59;62.25
11856;BME280;5987;53.140;8.904;2022-07-22T09:32:12;101979.94;;;17.62;62.17
11856;BME280;5987;53.140;8.904;2022-07-22T09:35:17;101982.34;;;17.49;62.82
11856;BME280;5987;53.140;8.904;2022-07-22T09:38:29;101983.41;;;17.45;63.96
11856;BME280;5987;53.140;8.904;2022-07-22T09:41:34;101973.78;;;17.61;63.91
11856;BME280;5987;53.140;8.904;2022-07-22T09:44:38;101980.84;;;17.24;63.67
11856;BME280;5987;53.140;8.904;2022-07-22T09:47:43;101988.88;;;17.61;63.78
11856;BME280;5987;53.140;8.904;2022-07-22T09:50:48;101977.69;;;17.54;63.28
11856;BME280;5987;53.140;8.904;2022-07-22T09:53:54;101994.53;;;17.53;62.75
11856;BME280;5987;53.140;8.904;2022-07-22T09:56:59;101986.16;;;17.43;63.31
11856;BME280;5987;53.140;8.904;2022-07-22T10:00:05;101985.19;;;17.63;63.75
11856;BME280;5987;53.140;8.904;2022-07-22T10:03:15;101985.06;;;17.47;63.48
11856;BME280;5987;53.140;8.904;2022-07-22T10:06:21;101988.53;;;17.49;63.50
11856;BME280;5987;53.140;8.904;2022-07-22T10:09:27;101997.47;;;17.28;64.41
11856;BME280;5987;53.140;8.904;2022-07-22T10:12:33;101995.31;;;17.17;64.84
11856;BME280;5987;53.140;8.904;2022-07-22T10:15:39;101991.03;;;17.14;64.53
11856;BME280;5987;53.140;8.904;2022-07-22T10:18:46;101991.75;;;17.18;64.51
11856;BME280;5987;53.140;8.904;2022-07-22T10:21:50;101985.88;;;17.49;63.98
11856;BME280;5987;53.140;8.904;2022-07-22T10:25:01;101982.31;;;17.68;62.67
11856;BME280;5987;53.140;8.904;2022-07-22T10:28:05;101988.56;;;17.67;60.90
11856;BME280;5987;53.140;8.904;2022-07-22T10:31:21;101993.22;;;17.62;61.95
11856;BME280;5987;53.140;8.904;2022-07-22T10:34:26;101997.19;;;17.53;60.98
11856;BME280;5987;53.140;8.904;2022-07-22T10:37:37;101989.28;;;17.71;61.44
11856;BME280;5987;53.140;8.904;2022-07-22T10:40:50;101988.97;;;17.77;61.48
11856;BME280;5987;53.140;8.904;2022-07-22T10:43:54;101988.91;;;17.59;61.47
11856;BME280;5987;53.140;8.904;2022-07-22T10:46:59;101982.50;;;17.82;62.86
11856;BME280;5987;53.140;8.904;2022-07-22T10:50:42;101999.63;;;17.58;63.57
11856;BME280;5987;53.140;8.904;2022-07-22T10:53:52;101990.31;;;17.49;63.23
11856;BME280;5987;53.140;8.904;2022-07-22T10:57:00;101986.06;;;17.64;63.80
11856;BME280;5987;53.140;8.904;2022-07-22T11:00:05;101984.19;;;18.03;63.91
11856;BME280;5987;53.140;8.904;2022-07-22T11:03:10;101978.44;;;18.12;62.48
11856;BME280;5987;53.140;8.904;2022-07-22T11:06:19;101976.09;;;18.23;62.54
11856;BME280;5987;53.140;8.904;2022-07-22T11:09:32;101977.47;;;18.65;61.53
11856;BME280;5987;53.140;8.904;2022-07-22T11:12:39;101974.81;;;18.65;59.77
11856;BME280;5987;53.140;8.904;2022-07-22T11:15:44;101972.22;;;18.64;60.75
11856;BME280;5987;53.140;8.904;2022-07-22T11:18:53;101979.31;;;18.30;60.73
11856;BME280;5987;53.140;8.904;2022-07-22T11:21:59;101974.38;;;18.40;60.49
11856;BME280;5987;53.140;8.904;2022-07-22T11:25:08;101969.03;;;18.22;61.14
11856;BME280;5987;53.140;8.904;2022-07-22T11:28:14;101967.56;;;18.34;61.24
11856;BME280;5987;53.140;8.904;2022-07-22T11:31:18;101969.34;;;18.33;60.55
11856;BME280;5987;53.140;8.904;2022-07-22T11:34:24;101966.06;;;17.93;60.37
11856;BME280;5987;53.140;8.904;2022-07-22T11:37:28;101953.47;;;18.32;60.20
11856;BME280;5987;53.140;8.904;2022-07-22T11:40:33;101952.69;;;18.12;59.06
11856;BME280;5987;53.140;8.904;2022-07-22T11:43:49;101947.31;;;18.31;58.59
11856;BME280;5987;53.140;8.904;2022-07-22T11:46:53;101951.38;;;18.39;58.79
11856;BME280;5987;53.140;8.904;2022-07-22T11:50:00;101951.41;;;18.72;58.45
11856;BME280;5987;53.140;8.904;2022-07-22T11:53:04;101945.53;;;18.65;57.40
11856;BME280;5987;53.140;8.904;2022-07-22T11:56:11;101942.09;;;18.63;57.17
11856;BME280;5987;53.140;8.904;2022-07-22T11:59:17;101944.81;;;18.79;57.31
11856;BME280;5987;53.140;8.904;2022-07-22T12:02:21;101941.94;;;18.66;57.16
11856;BME280;5987;53.140;8.904;2022-07-22T12:05:26;101945.25;;;18.37;57.60
11856;BME280;5987;53.140;8.904;2022-07-22T12:08:39;101945.56;;;18.48;57.33
11856;BME280;5987;53.140;8.904;2022-07-22T12:11:47;101945.28;;;18.88;57.72
11856;BME280;5987;53.140;8.904;2022-07-22T12:14:57;101939.75;;;19.24;57.57
11856;BME280;5987;53.140;8.904;2022-07-22T12:18:18;101948.97;;;19.01;56.26
11856;BME280;5987;53.140;8.904;2022-07-22T12:21:26;101945.16;;;18.56;57.51
11856;BME280;5987;53.140;8.904;2022-07-22T12:24:32;101943.47;;;18.88;58.30
11856;BME280;5987;53.140;8.904;2022-07-22T12:27:36;101940.81;;;18.88;56.45
11856;BME280;5987;53.140;8.904;2022-07-22T12:30:42;101933.97;;;19.16;57.58
11856;BME280;5987;53.140;8.904;2022-07-22T12:33:49;101940.31;;;18.97;56.05
11856;BME280;5987;53.140;8.904;2022-07-22T12:36:52;101933.59;;;19.70;56.09
11856;BME280;5987;53.140;8.904;2022-07-22T12:39:59;101936.53;;;19.65;55.17
11856;BME280;5987;53.140;8.904;2022-07-22T12:43:08;101934.84;;;19.79;55.92
11856;BME280;5987;53.140;8.904;2022-07-22T12:46:14;101929.47;;;19.64;54.91
11856;BME280;5987;53.140;8.904;2022-07-22T12:49:21;101930.34;;;19.65;54.37
11856;BME280;5987;53.140;8.904;2022-07-22T12:52:26;101937.81;;;19.58;55.29
11856;BME280;5987;53.140;8.904;2022-07-22T12:55:32;101944.53;;;19.33;54.84
11856;BME280;5987;53.140;8.904;2022-07-22T12:58:36;101937.66;;;19.13;55.52
11856;BME280;5987;53.140;8.904;2022-07-22T13:01:43;101944.28;;;19.22;56.15
11856;BME280;5987;53.140;8.904;2022-07-22T13:04:47;101945.19;;;18.89;57.25
11856;BME280;5987;53.140;8.904;2022-07-22T13:07:52;101934.56;;;18.72;57.11
11856;BME280;5987;53.140;8.904;2022-07-22T13:10:57;101934.16;;;18.46;58.43
11856;BME280;5987;53.140;8.904;2022-07-22T13:14:01;101932.53;;;18.77;59.13
11856;BME280;5987;53.140;8.904;2022-07-22T13:17:06;101932.34;;;18.80;58.86
11856;BME280;5987;53.140;8.904;2022-07-22T13:20:12;101939.28;;;19.00;59.11
11856;BME280;5987;53.140;8.904;2022-07-22T13:23:25;101936.56;;;18.84;57.59
11856;BME280;5987;53.140;8.904;2022-07-22T13:26:29;101927.19;;;18.77;58.46
11856;BME280;5987;53.140;8.904;2022-07-22T13:29:33;101929.50;;;19.00;58.16
11856;BME280;5987;53.140;8.904;2022-07-22T13:32:38;101924.75;;;18.90;57.68
11856;BME280;5987;53.140;8.904;2022-07-22T13:35:50;101919.84;;;18.82;57.44
11856;BME280;5987;53.140;8.904;2022-07-22T13:38:54;101924.00;;;18.88;57.22
11856;BME280;5987;53.140;8.904;2022-07-22T13:41:58;101923.19;;;18.52;57.30
11856;BME280;5987;53.140;8.904;2022-07-22T13:45:02;101930.13;;;18.72;57.60
11856;BME280;5987;53.140;8.904;2022-07-22T13:48:08;101914.44;;;18.83;57.33
11856;BME280;5987;53.140;8.904;2022-07-22T13:51:12;101919.63;;;19.02;56.76
11856;BME280;5987;53.140;8.904;2022-07-22T13:54:16;101913.19;;;19.39;56.27
11856;BME280;5987;53.140;8.904;2022-07-22T13:57:20;101901.09;;;19.17;56.72
11856;BME280;5987;53.140;8.904;2022-07-22T14:00:24;101915.44;;;19.14;57.23
11856;BME280;5987;53.140;8.904;2022-07-22T14:03:29;101912.69;;;18.82;57.25
11856;BME280;5987;53.140;8.904;2022-07-22T14:06:33;101909.50;;;18.93;57.62
11856;BME280;5987;53.140;8.904;2022-07-22T14:09:37;101911.81;;;19.15;57.33
11856;BME280;5987;53.140;8.904;2022-07-22T14:12:41;101913.34;;;19.19;57.56
11856;BME280;5987;53.140;8.904;2022-07-22T14:15:45;101922.94;;;18.90;57.92
11856;BME280;5987;53.140;8.904;2022-07-22T14:18:50;101911.59;;;18.71;58.76
11856;BME280;5987;53.140;8.904;2022-07-22T14:21:54;101915.47;;;18.63;59.00
11856;BME280;5987;53.140;8.904;2022-07-22T14:24:59;101909.41;;;18.77;59.03
11856;BME280;5987;53.140;8.904;2022-07-22T14:28:03;101907.78;;;18.92;59.37
11856;BME280;5987;53.140;8.904;2022-07-22T14:31:27;101902.63;;;18.89;57.99
11856;BME280;5987;53.140;8.904;2022-07-22T14:34:32;101913.19;;;19.07;58.40
11856;BME280;5987;53.140;8.904;2022-07-22T14:37:36;101907.50;;;18.97;58.02
11856;BME280;5987;53.140;8.904;2022-07-22T14:40:40;101912.69;;;18.82;58.46
11856;BME280;5987;53.140;8.904;2022-07-22T14:43:44;101906.38;;;18.85;59.01
11856;BME280;5987;53.140;8.904;2022-07-22T14:46:47;101906.91;;;18.92;59.79
11856;BME280;5987;53.140;8.904;2022-07-22T14:49:52;101907.50;;;18.97;58.88
11856;BME280;5987;53.140;8.904;2022-07-22T14:52:56;101910.16;;;18.63;58.62
11856;BME280;5987;53.140;8.904;2022-07-22T14:56:00;101913.78;;;18.62;59.68
11856;BME280;5987;53.140;8.904;2022-07-22T14:59:04;101909.34;;;18.79;58.55
11856;BME280;5987;53.140;8.904;2022-07-22T15:02:08;101909.22;;;18.98;58.25
11856;BME280;5987;53.140;8.904;2022-07-22T15:05:13;101907.84;;;18.57;57.64
11856;BME280;5987;53.140;8.904;2022-07-22T15:08:17;101893.06;;;18.85;57.57
11856;BME280;5987;53.140;8.904;2022-07-22T15:11:21;101903.88;;;18.82;58.69
11856;BME280;5987;53.140;8.904;2022-07-22T15:14:24;101910.03;;;18.66;60.13
11856;BME280;5987;53.140;8.904;2022-07-22T15:17:33;101907.56;;;18.46;60.59
11856;BME280;5987;53.140;8.904;2022-07-22T15:20:38;101905.47;;;18.00;61.62
11856;BME280;5987;53.140;8.904;2022-07-22T15:23:42;101908.84;;;18.04;62.08
11856;BME280;5987;53.140;8.904;2022-07-22T15:26:46;101900.41;;;17.95;61.72
11856;BME280;5987;53.140;8.904;2022-07-22T15:29:50;101906.97;;;18.06;62.82
11856;BME280;5987;53.140;8.904;2022-07-22T15:32:53;101893.13;;;18.16;61.83
11856;BME280;5987;53.140;8.904;2022-07-22T15:35:58;101889.53;;;18.17;61.47
11856;BME280;5987;53.140;8.904;2022-07-22T15:39:02;101882.19;;;18.05;62.41
11856;BME280;5987;53.140;8.904;2022-07-22T15:42:07;101884.78;;;18.24;62.22
11856;BME280;5987;53.140;8.904;2022-07-22T15:45:11;101886.94;;;18.33;62.47
11856;BME280;5987;53.140;8.904;2022-07-22T15:48:15;101895.06;;;18.30;61.29
11856;BME280;5987;53.140;8.904;2022-07-22T15:51:21;101895.78;;;18.16;61.89
11856;BME280;5987;53.140;8.904;2022-07-22T15:54:25;101891.31;;;17.82;62.51
11856;BME280;5987;53.140;8.904;2022-07-22T15:57:29;101894.44;;;17.73;63.73
11856;BME280;5987;53.140;8.904;2022-07-22T16:00:50;101889.34;;;17.68;63.60
11856;BME280;5987;53.140;8.904;2022-07-22T16:03:54;101886.88;;;17.82;63.98
11856;BME280;5987;53.140;8.904;2022-07-22T16:06:59;101884.53;;;17.76;63.70
11856;BME280;5987;53.140;8.904;2022-07-22T16:10:06;101880.28;;;17.90;63.92
11856;BME280;5987;53.140;8.904;2022-07-22T16:13:09;101876.94;;;17.86;63.67
11856;BME280;5987;53.140;8.904;2022-07-22T16:16:13;101882.28;;;17.86;63.70
11856;BME280;5987;53.140;8.904;2022-07-22T16:19:17;101884.63;;;17.92;63.97
11856;BME280;5987;53.140;8.904;2022-07-22T16:22:22;101885.28;;;17.97;64.01
11856;BME280;5987;53.140;8.904;2022-07-22T16:25:26;101882.56;;;17.80;63.66